Time;durP1;ratioP1;P1;durP2;ratioP2;P2;SDS_P1;SDS_P2;PMS_P1;PMS_P2;Temp;Humidity;BMP_temperature;BMP_pressure;BME280_temperature;BME280_humidity;BME280_pressure;Samples;Min_cycle;Max_cycle;Signal;HPM_P1;HPM_P2
2022/04/10 00:01:54;;;;;;;2.22;2.13;;;;;;;2.54;74.87;98831.81;4151055;28;20280;-55
2022/04/10 00:03:56;;;;;;;2.15;1.70;;;;;;;2.57;75.05;98832.28;4153760;28;20263;-56
2022/04/10 00:05:58;;;;;;;2.30;2.20;;;;;;;2.65;75.57;98829.44;4136809;28;20314;-55
2022/04/10 00:08:00;;;;;;;2.13;2.03;;;;;;;2.60;74.91;98837.28;4151583;28;20240;-56
2022/04/10 00:10:03;;;;;;;2.13;2.00;;;;;;;2.68;75.01;98830.94;4135433;28;20897;-55
2022/04/10 00:12:05;;;;;;;1.67;1.58;;;;;;;2.47;75.42;98829.03;4151965;28;20216;-55
2022/04/10 00:14:07;;;;;;;2.65;2.55;;;;;;;2.39;75.47;98829.16;4136175;28;20233;-55
2022/04/10 00:16:08;;;;;;;1.95;1.85;;;;;;;2.33;76.05;98829.91;4152206;28;20227;-55
2022/04/10 00:18:10;;;;;;;2.13;2.03;;;;;;;2.39;75.81;98826.47;4149907;28;20223;-55
2022/04/10 00:20:12;;;;;;;2.63;2.42;;;;;;;2.50;75.42;98825.97;4153307;28;20209;-55
2022/04/10 00:22:14;;;;;;;3.35;3.05;;;;;;;2.61;75.79;98833.53;4134998;28;20210;-55
2022/04/10 00:24:15;;;;;;;1.85;1.75;;;;;;;2.50;75.33;98825.97;4150316;28;20228;-55
2022/04/10 00:26:17;;;;;;;2.00;1.90;;;;;;;2.55;75.91;98828.91;4136706;28;20241;-54
2022/04/10 00:28:19;;;;;;;2.55;2.38;;;;;;;2.54;74.76;98821.84;4118341;28;20215;-55
2022/04/10 00:30:21;;;;;;;2.05;1.85;;;;;;;2.41;74.91;98827.09;4137022;28;20608;-55
2022/04/10 00:32:27;;;;;;;1.83;1.73;;;;;;;2.41;75.23;98832.50;4149021;28;20251;-55
2022/04/10 00:34:29;;;;;;;4.38;2.53;;;;;;;2.46;75.27;98829.22;4151400;28;20224;-55
2022/04/10 00:36:31;;;;;;;2.70;2.50;;;;;;;2.55;75.47;98826.22;4135269;28;20243;-55
2022/04/10 00:38:32;;;;;;;6.38;2.83;;;;;;;2.45;75.11;98833.81;4137358;28;20217;-55
2022/04/10 00:40:34;;;;;;;2.38;2.20;;;;;;;2.46;75.48;98832.78;4149544;28;20236;-55
2022/04/10 00:42:38;;;;;;;2.33;2.08;;;;;;;2.41;75.41;98832.50;4151023;28;20235;-56
2022/04/10 00:44:39;;;;;;;1.98;1.88;;;;;;;2.37;75.32;98823.13;4149016;28;20206;-55
2022/04/10 00:46:41;;;;;;;2.42;2.33;;;;;;;2.26;75.29;98822.75;4149832;28;20386;-56
2022/04/10 00:48:43;;;;;;;1.98;1.88;;;;;;;2.32;75.72;98830.94;4134639;28;20209;-56
2022/04/10 00:51:40;;;;;;;2.13;1.92;;;;;;;2.44;75.35;98826.75;4119221;28;20214;-56
2022/04/10 00:53:06;;;;;;;2.30;2.10;;;;;;;2.42;75.30;98828.78;4131719;28;20292;-56
2022/04/10 00:55:09;;;;;;;2.35;2.20;;;;;;;2.40;76.12;98825.44;4136424;28;20276;-56
2022/04/10 00:57:11;;;;;;;2.35;2.17;;;;;;;2.40;75.37;98824.63;4136481;28;20221;-57
2022/04/10 00:59:14;;;;;;;1.92;1.83;;;;;;;2.35;75.79;98833.25;4146849;28;20255;-56
2022/04/10 01:01:15;;;;;;;2.38;2.20;;;;;;;2.36;75.46;98826.00;4133028;28;20220;-55
2022/04/10 01:03:17;;;;;;;2.17;2.08;;;;;;;2.27;75.46;98836.09;4134712;28;20236;-55
2022/04/10 01:05:19;;;;;;;2.13;1.95;;;;;;;2.23;75.83;98834.81;4131862;28;20336;-57
2022/04/10 01:07:21;;;;;;;2.30;2.20;;;;;;;2.23;75.60;98832.09;4150986;28;20233;-55
2022/04/10 01:09:29;;;;;;;6.22;3.75;;;;;;;2.24;75.92;98828.38;4151109;28;20231;-56
2022/04/10 01:11:32;;;;;;;2.28;2.17;;;;;;;2.14;75.37;98830.53;4135024;28;20208;-56
2022/04/10 01:13:34;;;;;;;3.00;2.60;;;;;;;2.12;75.91;98837.13;4150345;28;20754;-55
2022/04/10 01:15:37;;;;;;;2.92;2.72;;;;;;;2.19;76.03;98841.59;4150392;28;20215;-55
2022/04/10 01:17:39;;;;;;;2.15;2.05;;;;;;;2.23;75.43;98840.22;4153132;28;20243;-55
2022/04/10 01:19:42;;;;;;;3.05;2.92;;;;;;;2.10;75.32;98834.66;4151842;28;20777;-55
2022/04/10 01:21:46;;;;;;;4.15;2.92;;;;;;;2.13;75.91;98834.25;4150804;28;20208;-56
2022/04/10 01:23:48;;;;;;;3.10;2.78;;;;;;;2.12;76.08;98845.22;4122143;28;20840;-55
2022/04/10 01:25:50;;;;;;;3.58;2.38;;;;;;;2.10;75.50;98842.75;4151660;28;20243;-55
2022/04/10 01:27:52;;;;;;;2.33;2.13;;;;;;;2.10;76.07;98837.34;4151027;28;20239;-56
2022/04/10 01:29:53;;;;;;;2.53;2.42;;;;;;;2.21;75.55;98842.22;4132804;28;20208;-56
2022/04/10 01:31:56;;;;;;;2.05;1.95;;;;;;;2.15;75.65;98847.56;4134351;28;20699;-55
2022/04/10 01:34:01;;;;;;;2.35;2.10;;;;;;;2.10;75.95;98842.75;4116185;28;20234;-56
2022/04/10 01:36:02;;;;;;;2.17;1.75;;;;;;;2.11;75.82;98852.50;4133982;28;20257;-55
2022/04/10 01:38:05;;;;;;;2.80;2.55;;;;;;;2.11;76.26;98847.13;4116654;28;20775;-55
2022/04/10 01:40:07;;;;;;;2.15;2.05;;;;;;;2.12;76.03;98842.53;4134985;28;20205;-55
2022/04/10 01:42:09;;;;;;;2.40;2.30;;;;;;;2.03;76.30;98852.63;4148543;28;20220;-56
2022/04/10 01:44:11;;;;;;;2.55;2.35;;;;;;;1.98;76.38;98852.34;4134905;28;20226;-55
2022/04/10 01:46:13;;;;;;;3.40;3.13;;;;;;;2.03;76.27;98854.47;4135866;28;20359;-55
2022/04/10 01:48:15;;;;;;;2.67;2.53;;;;;;;2.04;76.48;98856.97;4149552;28;20682;-55
2022/04/10 01:50:17;;;;;;;2.25;2.00;;;;;;;2.03;75.84;98852.63;4131288;28;20292;-55
2022/04/10 01:52:19;;;;;;;2.92;2.72;;;;;;;1.95;75.97;98851.88;4151284;28;20691;-56
2022/04/10 01:54:21;;;;;;;3.80;2.80;;;;;;;1.94;76.29;98851.03;4134955;28;20242;-56
2022/04/10 01:56:23;;;;;;;3.38;3.17;;;;;;;1.90;76.30;98849.75;4134726;28;20260;-54
2022/04/10 01:58:25;;;;;;;2.22;2.13;;;;;;;1.88;76.06;98851.78;4149910;28;20613;-55
2022/04/10 02:00:27;;;;;;;2.70;2.50;;;;;;;1.86;75.95;98861.94;4151901;28;20204;-56
2022/04/10 02:02:29;;;;;;;2.70;2.60;;;;;;;1.83;76.23;98854.22;4148422;28;20209;-56
2022/04/10 02:04:30;;;;;;;2.35;2.20;;;;;;;1.81;76.18;98850.84;4139559;28;20753;-55
2022/04/10 02:06:34;;;;;;;3.35;3.15;;;;;;;1.77;76.40;98860.34;4150410;28;20206;-56
2022/04/10 02:08:36;;;;;;;2.20;2.10;;;;;;;1.73;76.01;98853.66;4117828;28;20198;-55
2022/04/10 02:10:37;;;;;;;2.97;2.72;;;;;;;1.69;76.17;98852.34;4149216;28;20226;-55
2022/04/10 02:12:39;;;;;;;2.97;2.67;;;;;;;1.86;75.75;98843.03;4131787;28;20205;-55
2022/04/10 02:14:41;;;;;;;3.72;2.92;;;;;;;1.70;75.68;98848.63;4132344;28;20324;-56
2022/04/10 02:16:42;;;;;;;1.98;1.88;;;;;;;1.65;76.21;98853.75;4134034;28;20797;-55
2022/04/10 02:18:46;;;;;;;2.50;2.40;;;;;;;1.57;75.71;98853.84;4147555;28;20224;-55
2022/04/10 02:20:47;;;;;;;3.30;2.72;;;;;;;1.56;75.82;98857.56;4132216;28;20353;-56
2022/04/10 02:22:53;;;;;;;2.90;2.70;;;;;;;1.56;75.85;98852.19;4132155;28;22061;-55
2022/04/10 02:24:54;;;;;;;4.03;3.72;;;;;;;1.54;75.78;98848.81;4149341;28;20723;-56
2022/04/10 02:26:56;;;;;;;2.53;2.33;;;;;;;1.57;76.33;98855.69;4151779;28;20256;-54
2022/04/10 02:28:59;;;;;;;2.05;1.95;;;;;;;1.54;76.15;98858.78;4132800;28;20265;-56
2022/04/10 02:31:00;;;;;;;2.90;2.70;;;;;;;1.51;76.14;98854.59;4131418;28;20251;-55
2022/04/10 02:33:02;;;;;;;5.50;3.55;;;;;;;1.46;76.12;98853.44;4147706;28;20655;-55
2022/04/10 02:35:05;;;;;;;3.45;3.00;;;;;;;1.44;76.31;98853.66;4136519;28;20263;-56
2022/04/10 02:37:06;;;;;;;3.03;2.72;;;;;;;1.37;76.22;98857.25;4132324;28;20244;-55
2022/04/10 02:39:08;;;;;;;4.15;3.85;;;;;;;1.41;76.56;98861.28;4149040;28;20248;-55
2022/04/10 02:41:10;;;;;;;3.08;2.88;;;;;;;1.42;76.69;98861.06;4148611;28;20205;-55
2022/04/10 02:43:13;;;;;;;3.63;3.30;;;;;;;1.40;76.63;98860.41;4133279;28;20272;-55
2022/04/10 02:45:16;;;;;;;4.65;4.25;;;;;;;1.31;76.58;98863.38;4149188;28;20205;-54
2022/04/10 02:47:17;;;;;;;4.05;3.75;;;;;;;1.26;76.66;98861.22;4147701;28;20205;-55
2022/04/10 02:49:19;;;;;;;4.50;4.05;;;;;;;1.37;76.67;98858.09;4149589;28;20313;-55
2022/04/10 02:51:21;;;;;;;3.78;3.53;;;;;;;1.38;76.89;98859.78;4131699;28;20205;-56
2022/04/10 02:53:23;;;;;;;3.60;3.30;;;;;;;1.43;76.45;98857.38;4148047;28;20232;-55
2022/04/10 02:55:24;;;;;;;4.47;3.08;;;;;;;1.35;76.10;98853.91;4149358;28;20332;-55
2022/04/10 02:57:26;;;;;;;2.40;2.20;;;;;;;1.45;76.22;98866.09;4131148;28;20201;-55
2022/04/10 02:59:28;;;;;;;3.05;2.85;;;;;;;1.35;76.39;98862.81;4147294;28;20205;-55
2022/04/10 03:01:29;;;;;;;5.63;3.60;;;;;;;1.22;76.56;98868.00;4131559;28;20683;-54
2022/04/10 03:03:31;;;;;;;2.85;2.65;;;;;;;1.29;76.55;98862.72;4132706;28;20273;-55
2022/04/10 03:05:33;;;;;;;3.08;2.25;;;;;;;1.25;76.54;98866.81;4150391;28;20328;-55
2022/04/10 03:07:35;;;;;;;1.95;1.85;;;;;;;1.19;76.47;98868.38;4145727;28;20221;-55
2022/04/10 03:09:36;;;;;;;3.50;3.30;;;;;;;1.19;76.77;98871.06;4134504;28;20308;-54
2022/04/10 03:11:38;;;;;;;2.35;2.25;;;;;;;1.13;76.13;98871.78;4132292;28;20311;-55
2022/04/10 03:13:40;;;;;;;3.58;3.28;;;;;;;1.15;76.36;98871.63;4132121;28;20236;-55
2022/04/10 03:15:41;;;;;;;2.72;2.53;;;;;;;1.14;76.29;98870.78;4149778;28;20275;-55
2022/04/10 03:17:43;;;;;;;3.30;3.10;;;;;;;1.10;76.33;98866.78;4151635;28;20212;-55
2022/04/10 03:19:45;;;;;;;3.33;3.13;;;;;;;1.04;76.21;98877.44;4117945;28;20991;-55
2022/04/10 03:21:46;;;;;;;3.10;2.90;;;;;;;0.94;76.66;98872.28;4148334;28;20213;-56
2022/04/10 03:23:48;;;;;;;4.50;4.20;;;;;;;0.85;76.99;98878.78;4151302;28;20232;-55
2022/04/10 03:25:50;;;;;;;3.83;3.53;;;;;;;0.88;77.27;98882.97;4134154;28;20571;-55
2022/04/10 03:27:51;;;;;;;5.78;3.65;;;;;;;0.85;77.68;98872.53;4132818;28;20685;-55
2022/04/10 03:29:53;;;;;;;2.58;2.42;;;;;;;0.84;78.03;98882.50;4151840;28;20210;-56
2022/04/10 03:31:55;;;;;;;3.05;2.85;;;;;;;0.92;77.92;98877.03;4150168;28;20220;-55
2022/04/10 03:33:57;;;;;;;3.65;3.35;;;;;;;0.90;77.26;98880.91;4133312;28;20232;-55
2022/04/10 03:35:59;;;;;;;4.53;4.18;;;;;;;0.91;77.80;98880.75;4147006;28;20208;-55
2022/04/10 03:38:00;;;;;;;3.88;3.67;;;;;;;0.87;77.40;98876.72;4149505;28;20313;-56
2022/04/10 03:40:04;;;;;;;3.03;2.83;;;;;;;0.78;77.20;98877.81;4134744;28;20221;-55
2022/04/10 03:42:12;;;;;;;4.07;3.80;;;;;;;0.87;77.34;98882.13;4133398;28;20212;-56
2022/04/10 03:44:13;;;;;;;3.83;3.60;;;;;;;0.82;77.74;98879.13;4136611;28;20233;-54
2022/04/10 03:46:15;;;;;;;8.45;4.03;;;;;;;0.91;77.50;98891.53;4136914;28;20208;-54
2022/04/10 03:48:17;;;;;;;3.53;3.33;;;;;;;0.85;77.22;98889.53;4149899;28;20212;-56
2022/04/10 03:50:19;;;;;;;3.53;3.22;;;;;;;0.86;77.27;98893.06;4151272;28;20236;-54
2022/04/10 03:52:20;;;;;;;4.32;3.92;;;;;;;0.87;77.50;98890.19;4152818;28;20234;-56
2022/04/10 03:54:22;;;;;;;4.45;4.13;;;;;;;0.86;77.24;98891.22;4138514;28;20809;-57
2022/04/10 03:56:24;;;;;;;3.65;3.45;;;;;;;0.84;76.91;98887.88;4152383;28;20228;-55
2022/04/10 03:58:25;;;;;;;4.35;4.05;;;;;;;0.84;77.09;98898.66;4135059;28;20241;-56
2022/04/10 04:00:27;;;;;;;10.85;5.90;;;;;;;0.83;77.02;98896.97;4137439;28;20209;-56
2022/04/10 04:02:29;;;;;;;4.18;3.85;;;;;;;0.81;77.06;98899.00;4154966;28;20205;-56
2022/04/10 04:04:31;;;;;;;4.00;3.58;;;;;;;0.79;76.75;98884.88;4139319;28;20777;-55
2022/04/10 04:06:32;;;;;;;3.15;2.92;;;;;;;0.76;76.80;98892.47;4151761;28;20224;-55
2022/04/10 04:08:34;;;;;;;2.83;2.63;;;;;;;0.76;76.53;98901.41;4136093;28;20213;-55
2022/04/10 04:10:38;;;;;;;3.17;2.92;;;;;;;0.77;76.78;98907.63;4155530;28;20204;-54
2022/04/10 04:12:40;;;;;;;2.83;2.72;;;;;;;0.74;76.51;98908.81;4136787;28;20271;-56
2022/04/10 04:14:41;;;;;;;3.58;3.22;;;;;;;0.74;76.75;98919.56;4150301;28;20228;-55
2022/04/10 04:16:43;;;;;;;3.08;2.88;;;;;;;0.66;77.35;98922.31;4135024;28;20230;-55
2022/04/10 04:18:45;;;;;;;3.58;3.38;;;;;;;0.68;77.53;98924.84;4153977;28;20219;-55
2022/04/10 04:20:47;;;;;;;3.53;3.22;;;;;;;0.71;77.32;98927.16;4149415;28;20702;-56
2022/04/10 04:22:48;;;;;;;3.97;3.42;;;;;;;0.74;77.22;98930.34;4118803;28;20203;-56
2022/04/10 04:24:50;;;;;;;4.00;3.70;;;;;;;0.74;77.04;98934.91;4134202;28;20206;-56
2022/04/10 04:26:52;;;;;;;3.55;3.25;;;;;;;0.75;76.83;98932.00;4150531;28;20247;-56
2022/04/10 04:28:53;;;;;;;4.93;4.63;;;;;;;0.76;76.86;98925.66;4138780;28;20759;-55
2022/04/10 04:30:56;;;;;;;3.95;3.75;;;;;;;0.75;77.02;98923.94;4151184;28;20347;-55
2022/04/10 04:32:58;;;;;;;4.78;4.47;;;;;;;0.73;76.95;98925.97;4153382;28;20598;-55
2022/04/10 04:35:00;;;;;;;3.67;3.38;;;;;;;0.76;76.85;98933.72;4151863;28;20952;-55
2022/04/10 04:37:02;;;;;;;3.63;3.42;;;;;;;0.77;76.98;98930.00;4132927;28;20594;-56
2022/04/10 04:39:04;;;;;;;4.28;3.97;;;;;;;0.78;77.15;98933.53;4134855;28;20272;-55
2022/04/10 04:41:08;;;;;;;4.80;4.47;;;;;;;0.81;77.15;98939.38;4134750;28;20233;-55
2022/04/10 04:43:09;;;;;;;3.00;2.72;;;;;;;0.83;77.03;98937.38;4117862;28;20230;-55
2022/04/10 04:45:11;;;;;;;4.70;4.40;;;;;;;0.82;77.22;98949.13;4150062;28;20216;-55
2022/04/10 04:47:13;;;;;;;4.20;4.00;;;;;;;0.87;77.24;98943.25;4134555;28;20244;-56
2022/04/10 04:49:14;;;;;;;3.92;3.63;;;;;;;0.84;76.98;98941.75;4153041;28;20253;-56
2022/04/10 04:51:16;;;;;;;3.42;3.22;;;;;;;0.88;77.03;98953.00;4121909;28;20566;-55
2022/04/10 04:53:18;;;;;;;4.32;3.92;;;;;;;0.90;77.07;98949.09;4120225;28;20234;-56
2022/04/10 04:55:19;;;;;;;3.45;3.17;;;;;;;0.92;77.33;98946.22;4134289;28;20203;-55
2022/04/10 04:57:21;;;;;;;5.97;5.55;;;;;;;0.86;77.34;98955.84;4153175;28;20208;-56
2022/04/10 04:59:23;;;;;;;5.22;4.72;;;;;;;0.77;77.81;98956.94;4152964;28;20295;-56
2022/04/10 05:01:25;;;;;;;5.50;4.28;;;;;;;0.70;78.11;98950.59;4134806;28;20205;-55
2022/04/10 05:03:26;;;;;;;4.43;4.07;;;;;;;0.81;77.74;98950.16;4135835;28;20229;-56
2022/04/10 05:05:28;;;;;;;4.50;4.20;;;;;;;0.84;78.08;98960.59;4135245;28;20213;-56
2022/04/10 05:07:30;;;;;;;4.95;4.55;;;;;;;0.98;78.00;98959.81;4134548;28;21612;-56
2022/04/10 05:09:32;;;;;;;4.28;3.97;;;;;;;0.94;77.97;98955.78;4152173;28;20202;-57
2022/04/10 05:11:33;;;;;;;4.57;4.20;;;;;;;1.02;78.03;98960.31;4136155;28;20210;-55
2022/04/10 05:13:35;;;;;;;7.90;4.68;;;;;;;0.95;77.88;98960.16;4135745;28;20726;-55
2022/04/10 05:15:37;;;;;;;4.40;4.07;;;;;;;0.96;78.05;98964.56;4119847;28;20340;-56
2022/04/10 05:17:39;;;;;;;3.72;3.42;;;;;;;0.96;77.87;98961.88;4134611;28;20209;-55
2022/04/10 05:19:41;;;;;;;4.75;4.45;;;;;;;0.99;77.93;98966.03;4140200;28;20242;-55
2022/04/10 05:21:42;;;;;;;5.30;4.88;;;;;;;0.98;77.43;98970.59;4119248;28;20924;-55
2022/04/10 05:23:44;;;;;;;4.15;3.85;;;;;;;1.03;78.04;98979.00;4133551;28;20687;-55
2022/04/10 05:25:46;;;;;;;4.53;4.22;;;;;;;1.07;77.88;98976.78;4115380;28;20296;-55
2022/04/10 05:27:48;;;;;;;6.00;5.40;;;;;;;0.98;78.05;98981.38;4134222;28;20209;-55
2022/04/10 05:29:50;;;;;;;5.90;5.33;;;;;;;0.98;78.67;98980.53;4133269;28;20241;-55
2022/04/10 05:31:51;;;;;;;5.15;4.75;;;;;;;1.01;78.40;98986.38;4132481;28;20237;-56
2022/04/10 05:33:53;;;;;;;5.13;4.73;;;;;;;1.01;78.48;98990.97;4131884;28;20232;-55
2022/04/10 05:35:55;;;;;;;4.80;4.50;;;;;;;1.06;78.24;98993.94;4116594;28;20226;-55
2022/04/10 05:37:57;;;;;;;4.45;4.13;;;;;;;1.09;78.36;98997.09;4117067;28;20347;-54
2022/04/10 05:39:59;;;;;;;4.90;4.45;;;;;;;1.26;78.58;99001.38;4134891;28;20234;-54
2022/04/10 05:42:00;;;;;;;5.40;4.20;;;;;;;1.21;77.74;98994.84;4136220;28;20275;-55
2022/04/10 05:44:02;;;;;;;4.53;4.13;;;;;;;1.23;77.86;98993.66;4116392;28;20712;-53
2022/04/10 05:46:04;;;;;;;4.67;4.37;;;;;;;1.24;78.10;98997.19;4132758;28;20215;-58
2022/04/10 05:48:06;;;;;;;4.32;4.03;;;;;;;1.23;77.97;99001.75;4118690;28;20211;-55
2022/04/10 05:50:09;;;;;;;4.28;3.97;;;;;;;1.25;77.81;99001.53;4133504;28;20255;-54
2022/04/10 05:52:11;;;;;;;4.35;4.07;;;;;;;1.26;78.07;99001.38;4116317;28;20268;-54
2022/04/10 05:54:14;;;;;;;5.97;4.28;;;;;;;1.31;77.60;99006.22;4120012;28;20239;-58
2022/04/10 05:56:16;;;;;;;4.75;4.43;;;;;;;1.31;77.82;99003.53;4133137;28;20293;-57
2022/04/10 05:58:18;;;;;;;4.32;4.03;;;;;;;1.18;78.24;99006.81;4134434;28;22360;-55
2022/04/10 06:00:21;;;;;;;5.20;4.88;;;;;;;1.14;78.25;99000.09;4103782;28;20226;-56
2022/04/10 06:02:22;;;;;;;4.80;4.40;;;;;;;1.14;78.28;99007.38;4136754;28;20202;-56
2022/04/10 06:04:24;;;;;;;4.23;3.83;;;;;;;1.08;78.78;98997.31;4116522;28;20242;-55
2022/04/10 06:06:28;;;;;;;4.93;4.47;;;;;;;1.16;78.87;99005.31;4132191;28;20228;-56
2022/04/10 06:08:30;;;;;;;3.80;3.63;;;;;;;1.14;79.00;99002.81;4109839;28;20252;-57
2022/04/10 06:10:32;;;;;;;3.67;3.47;;;;;;;1.25;78.49;99009.63;4126824;28;21206;-56
2022/04/10 06:12:34;;;;;;;4.18;3.90;;;;;;;1.20;78.92;99004.78;4132417;28;20221;-53
2022/04/10 06:14:35;;;;;;;4.43;4.13;;;;;;;1.31;78.48;99015.16;4131728;28;20283;-53
2022/04/10 06:16:37;;;;;;;4.30;4.03;;;;;;;1.38;78.83;99021.50;4133886;28;20280;-53
2022/04/10 06:18:39;;;;;;;4.00;3.70;;;;;;;1.43;78.56;99024.50;4135328;28;20208;-55
2022/04/10 06:20:40;;;;;;;3.80;3.50;;;;;;;1.47;78.56;99023.13;4119544;28;20221;-54
2022/04/10 06:22:42;;;;;;;4.03;3.83;;;;;;;1.57;78.73;99023.72;4135255;28;20210;-53
2022/04/10 06:24:44;;;;;;;4.15;3.88;;;;;;;1.62;78.36;99028.56;4138189;28;20268;-53
2022/04/10 06:26:48;;;;;;;4.55;4.25;;;;;;;1.72;78.35;99030.00;4119502;28;20210;-53
2022/04/10 06:28:50;;;;;;;5.57;5.25;;;;;;;1.81;77.94;99028.88;4132277;28;20214;-53
2022/04/10 06:30:52;;;;;;;4.10;3.70;;;;;;;1.84;78.07;99033.94;4133983;28;20948;-53
2022/04/10 06:32:54;;;;;;;3.80;3.50;;;;;;;1.85;77.66;99034.75;4117832;28;20203;-53
2022/04/10 06:34:56;;;;;;;4.72;4.38;;;;;;;1.90;77.91;99025.13;4134670;28;20608;-54
2022/04/10 06:36:57;;;;;;;4.13;3.92;;;;;;;1.92;77.59;99033.00;4119339;28;20764;-53
2022/04/10 06:38:59;;;;;;;4.03;3.75;;;;;;;1.97;77.78;99028.75;4117891;28;20217;-53
2022/04/10 06:41:01;;;;;;;5.47;3.75;;;;;;;2.02;77.51;99031.72;4134080;28;20206;-53
2022/04/10 06:43:06;;;;;;;3.95;3.65;;;;;;;2.03;77.22;99033.41;4133205;28;20260;-53
2022/04/10 06:45:08;;;;;;;4.80;4.45;;;;;;;2.08;77.33;99030.97;4131685;28;20245;-56
2022/04/10 06:47:10;;;;;;;2.92;2.63;;;;;;;2.14;76.76;99030.25;4134336;28;20915;-54
2022/04/10 06:49:14;;;;;;;3.97;3.38;;;;;;;2.13;76.53;99039.38;4133626;28;20307;-53
2022/04/10 06:51:16;;;;;;;4.35;3.95;;;;;;;2.19;77.16;99038.63;4135508;28;20205;-53
2022/04/10 06:53:18;;;;;;;2.92;2.72;;;;;;;2.18;76.22;99036.97;4132487;28;20236;-53
2022/04/10 06:55:20;;;;;;;2.88;2.67;;;;;;;2.21;76.13;99033.88;4131536;28;20308;-55
2022/04/10 06:57:22;;;;;;;4.60;4.30;;;;;;;2.30;76.40;99043.59;4118096;28;20233;-54
2022/04/10 06:59:23;;;;;;;4.57;4.07;;;;;;;2.36;76.78;99044.69;4116445;28;20266;-52
2022/04/10 07:01:28;;;;;;;5.60;3.55;;;;;;;2.46;75.90;99047.94;4115916;28;20662;-55
2022/04/10 07:03:31;;;;;;;3.05;2.85;;;;;;;2.51;75.74;99050.94;4119193;28;20799;-56
2022/04/10 07:05:33;;;;;;;2.83;2.60;;;;;;;2.58;75.81;99055.41;4116633;28;20210;-54
2022/04/10 07:07:34;;;;;;;3.25;3.05;;;;;;;2.61;75.37;99054.22;4117175;28;20256;-52
2022/04/10 07:09:36;;;;;;;4.20;3.90;;;;;;;2.58;75.40;99057.28;4134819;28;20213;-53
2022/04/10 07:11:38;;;;;;;3.38;3.17;;;;;;;2.66;76.01;99057.19;4133329;28;20708;-56
2022/04/10 07:13:40;;;;;;;3.75;3.45;;;;;;;2.66;75.33;99058.03;4104727;28;20274;-54
2022/04/10 07:15:41;;;;;;;4.38;4.07;;;;;;;2.72;75.12;99057.28;4135546;28;20210;-53
2022/04/10 07:17:43;;;;;;;4.60;4.20;;;;;;;2.75;75.28;99059.59;4135964;28;20217;-53
2022/04/10 07:19:45;;;;;;;4.95;4.55;;;;;;;2.79;75.88;99065.44;4119235;28;20258;-53
2022/04/10 07:24:07;;;;;;;5.63;3.67;;;;;;;2.78;75.07;99061.94;4122518;28;20226;-53
2022/04/10 07:26:13;;;;;;;4.05;3.65;;;;;;;2.80;75.39;99070.69;4139050;28;20217;-56
2022/04/10 07:28:16;;;;;;;4.28;3.97;;;;;;;2.91;74.93;99072.91;4136362;28;20260;-53
2022/04/10 07:30:17;;;;;;;5.80;5.35;;;;;;;2.80;74.82;99070.69;4121274;28;20668;-54
2022/04/10 07:32:19;;;;;;;6.00;5.47;;;;;;;2.95;74.71;99068.78;4136670;28;20214;-53
2022/04/10 07:34:21;;;;;;;4.03;3.72;;;;;;;3.14;74.19;99079.00;4121702;28;20234;-53
2022/04/10 07:36:25;;;;;;;3.17;2.97;;;;;;;3.33;74.12;99070.31;4138738;28;20240;-54
2022/04/10 07:38:27;;;;;;;4.63;4.32;;;;;;;3.33;73.76;99061.38;4121542;28;20276;-53
2022/04/10 07:40:30;;;;;;;4.43;4.07;;;;;;;3.50;73.05;99063.63;4134676;28;20606;-57
2022/04/10 07:42:32;;;;;;;3.78;3.50;;;;;;;3.71;72.99;99069.06;4134473;28;20212;-56
2022/04/10 07:44:39;;;;;;;3.90;3.58;;;;;;;3.78;73.53;99078.06;4138878;28;20209;-55
2022/04/10 07:49:02;;;;;;;4.13;3.83;;;;;;;3.87;72.75;99076.91;4137760;28;20209;-55
2022/04/10 07:51:04;;;;;;;3.97;3.28;;;;;;;3.83;72.63;99086.47;4117140;28;20214;-55
2022/04/10 07:53:06;;;;;;;4.45;4.05;;;;;;;3.99;73.06;99078.06;4134092;28;20544;-55
2022/04/10 07:55:08;;;;;;;5.00;4.10;;;;;;;4.06;72.31;99076.25;4134216;28;20210;-55
2022/04/10 07:57:10;;;;;;;4.85;4.40;;;;;;;4.34;72.31;99079.81;4137384;28;20677;-54
2022/04/10 07:59:12;;;;;;;4.35;4.05;;;;;;;4.32;72.17;99086.44;4137137;28;20245;-54
2022/04/10 08:01:14;;;;;;;4.10;3.78;;;;;;;4.47;72.49;99085.31;4120250;28;20215;-54
2022/04/10 08:03:16;;;;;;;3.95;3.67;;;;;;;4.19;72.50;99081.78;4134883;28;20225;-55
2022/04/10 08:05:19;;;;;;;3.63;3.33;;;;;;;4.17;71.79;99083.84;4124306;28;20241;-54
2022/04/10 08:07:21;;;;;;;6.03;5.38;;;;;;;4.31;72.14;99085.63;4136052;28;20236;-54
2022/04/10 08:09:22;;;;;;;5.07;4.03;;;;;;;4.46;71.39;99089.06;4103266;28;20262;-53
2022/04/10 08:11:24;;;;;;;5.38;4.88;;;;;;;4.70;71.90;99091.34;4118514;28;20252;-55
2022/04/10 08:13:26;;;;;;;4.95;4.40;;;;;;;4.80;71.13;99091.78;4135424;28;20237;-55
2022/04/10 08:15:28;;;;;;;4.47;4.07;;;;;;;4.96;71.02;99096.91;4103589;28;20644;-54
2022/04/10 08:17:30;;;;;;;5.32;3.83;;;;;;;5.08;70.75;99103.41;4124786;28;20226;-54
2022/04/10 08:19:31;;;;;;;4.63;4.32;;;;;;;5.07;70.87;99109.88;4137925;28;20687;-53
2022/04/10 08:21:33;;;;;;;4.40;4.00;;;;;;;5.10;70.08;99109.50;4121215;28;20210;-53
2022/04/10 08:23:35;;;;;;;4.35;4.05;;;;;;;5.04;70.12;99110.31;4121104;28;20839;-53
2022/04/10 08:25:37;;;;;;;9.32;5.15;;;;;;;5.15;69.79;99113.28;4123147;28;20572;-53
2022/04/10 08:27:40;;;;;;;5.40;4.95;;;;;;;5.12;69.54;99112.84;4117817;28;20203;-53
2022/04/10 08:29:41;;;;;;;7.40;5.35;;;;;;;5.08;69.23;99114.25;4108357;28;20279;-53
2022/04/10 08:31:43;;;;;;;4.88;4.38;;;;;;;4.88;70.26;99115.22;4102257;28;20207;-54
2022/04/10 08:33:46;;;;;;;3.00;2.67;;;;;;;4.99;70.11;99123.63;4135747;28;20579;-54
2022/04/10 08:35:48;;;;;;;3.30;3.05;;;;;;;4.94;70.41;99115.22;4137383;28;20209;-54
2022/04/10 08:37:51;;;;;;;6.30;3.78;;;;;;;4.86;70.57;99118.09;4134278;28;20318;-54
2022/04/10 08:39:53;;;;;;;3.22;2.92;;;;;;;4.93;70.74;99123.59;4137010;28;20235;-54
2022/04/10 08:41:57;;;;;;;5.43;5.03;;;;;;;5.01;70.57;99121.53;4119791;28;20343;-53
2022/04/10 08:44:03;;;;;;;5.50;4.95;;;;;;;4.99;70.98;99122.78;4136774;28;20245;-53
2022/04/10 08:46:06;;;;;;;6.68;5.97;;;;;;;4.85;71.42;99124.56;4117677;28;20214;-54
2022/04/10 08:48:08;;;;;;;4.47;4.03;;;;;;;4.93;70.91;99120.88;4105505;28;20206;-54
2022/04/10 08:50:10;;;;;;;4.93;4.60;;;;;;;5.00;70.43;99119.84;4136067;28;20264;-54
2022/04/10 08:52:13;;;;;;;5.97;5.43;;;;;;;5.00;70.55;99127.19;4121855;28;20219;-55
2022/04/10 08:54:14;;;;;;;4.55;4.15;;;;;;;5.01;70.92;99124.25;4136297;28;20226;-54
2022/04/10 08:56:16;;;;;;;4.95;4.25;;;;;;;5.21;70.50;99133.31;4136075;28;20220;-53
2022/04/10 08:58:19;;;;;;;4.53;4.22;;;;;;;5.28;70.41;99134.19;4118816;28;20226;-56
2022/04/10 09:00:23;;;;;;;3.30;3.10;;;;;;;5.36;70.58;99134.03;4133776;28;20206;-55
2022/04/10 09:02:25;;;;;;;3.80;3.47;;;;;;;5.61;68.62;99124.31;4134058;28;20209;-54
2022/04/10 09:04:27;;;;;;;4.80;4.43;;;;;;;5.61;68.62;99132.44;4135623;28;20236;-53
2022/04/10 09:06:29;;;;;;;4.32;4.03;;;;;;;5.97;68.91;99136.56;4104432;28;20207;-54
2022/04/10 09:08:33;;;;;;;3.85;3.55;;;;;;;6.04;68.35;99136.59;4106339;28;20199;-53
2022/04/10 09:10:55;;;;;;;4.45;4.07;;;;;;;6.07;66.98;99136.16;4120219;28;21034;-55
2022/04/10 09:13:07;;;;;;;4.38;4.07;;;;;;;6.27;67.14;99139.75;4134745;28;20263;-54
2022/04/10 09:15:09;;;;;;;4.45;3.72;;;;;;;6.26;67.33;99136.22;4121298;28;20703;-54
2022/04/10 09:17:12;;;;;;;3.95;3.65;;;;;;;6.37;66.09;99141.00;4123030;28;20301;-53
2022/04/10 09:19:18;;;;;;;3.88;3.58;;;;;;;6.28;66.54;99136.00;4137098;28;20234;-54
2022/04/10 09:21:22;;;;;;;3.95;3.55;;;;;;;6.52;66.86;99146.25;4119806;28;20210;-53
2022/04/10 09:23:24;;;;;;;3.75;3.55;;;;;;;6.86;65.83;99140.56;4136581;28;20240;-53
2022/04/10 09:25:26;;;;;;;4.03;3.65;;;;;;;6.85;65.34;99141.63;4121859;28;20607;-53
2022/04/10 09:27:35;;;;;;;3.78;3.47;;;;;;;6.63;66.34;99137.47;4117177;28;20261;-53
2022/04/10 09:29:49;;;;;;;4.15;3.75;;;;;;;6.65;66.37;99130.78;4132804;28;20209;-55
2022/04/10 09:31:53;;;;;;;6.38;3.70;;;;;;;6.65;66.52;99132.66;4133432;28;20205;-54
2022/04/10 09:34:03;;;;;;;2.63;2.42;;;;;;;6.61;65.76;99129.50;4136489;28;20226;-55
2022/04/10 09:36:05;;;;;;;3.20;3.00;;;;;;;6.56;66.74;99132.03;4119390;28;21116;-54
2022/04/10 09:38:07;;;;;;;3.83;3.53;;;;;;;6.67;66.31;99135.97;4119027;28;20703;-55
2022/04/10 09:40:33;;;;;;;3.33;3.05;;;;;;;6.69;66.58;99133.91;4118132;28;20230;-53
2022/04/10 09:42:37;;;;;;;2.88;2.60;;;;;;;7.07;66.44;99135.72;4103284;28;20211;-54
2022/04/10 09:44:54;;;;;;;2.90;2.70;;;;;;;7.82;65.29;99135.06;4118588;28;21139;-52
2022/04/10 09:47:01;;;;;;;4.70;4.30;;;;;;;8.10;65.04;99135.50;4116151;28;20202;-54
2022/04/10 09:49:05;;;;;;;4.63;2.83;;;;;;;8.26;63.78;99133.13;4117012;28;20257;-52